sensor_id;sensor_type;location;lat;lon;timestamp;noise_LAeq;noise_LA_min;noise_LA_max;noise_LA01;noise_LA95
46749;Laerm;33775;47.992;11.864;2024-02-16T00:00:01;36.00;28.67;39.70;;
46749;Laerm;33775;47.992;11.864;2024-02-16T00:02:28;35.97;26.91;39.34;;
46749;Laerm;33775;47.992;11.864;2024-02-16T00:04:53;35.97;26.91;38.95;;
46749;Laerm;33775;47.992;11.864;2024-02-16T00:07:18;35.97;28.67;39.34;;
46749;Laerm;33775;47.992;11.864;2024-02-16T00:09:43;35.97;28.67;39.21;;
46749;Laerm;33775;47.992;11.864;2024-02-16T00:12:09;36.00;5.00;39.34;;
46749;Laerm;33775;47.992;11.864;2024-02-16T00:14:34;36.01;28.67;39.08;;
46749;Laerm;33775;47.992;11.864;2024-02-16T00:16:59;35.97;26.91;39.08;;
46749;Laerm;33775;47.992;11.864;2024-02-16T00:19:24;36.01;28.67;38.95;;
46749;Laerm;33775;47.992;11.864;2024-02-16T00:21:50;35.99;29.92;39.34;;
46749;Laerm;33775;47.992;11.864;2024-02-16T00:24:16;35.97;28.67;39.70;;
46749;Laerm;33775;47.992;11.864;2024-02-16T00:26:41;35.97;23.90;39.08;;
46749;Laerm;33775;47.992;11.864;2024-02-16T00:29:08;35.96;26.91;39.21;;
46749;Laerm;33775;47.992;11.864;2024-02-16T00:31:33;35.92;26.91;39.21;;
46749;Laerm;33775;47.992;11.864;2024-02-16T00:33:58;35.93;28.67;39.46;;
46749;Laerm;33775;47.992;11.864;2024-02-16T00:36:25;35.91;28.67;39.08;;
46749;Laerm;33775;47.992;11.864;2024-02-16T00:38:50;35.94;23.90;39.46;;
46749;Laerm;33775;47.992;11.864;2024-02-16T00:41:19;35.91;23.90;39.34;;
46749;Laerm;33775;47.992;11.864;2024-02-16T00:43:45;35.91;28.67;39.46;;
46749;Laerm;33775;47.992;11.864;2024-02-16T00:46:10;35.91;26.91;39.46;;
46749;Laerm;33775;47.992;11.864;2024-02-16T00:48:36;35.88;28.67;39.08;;
46749;Laerm;33775;47.992;11.864;2024-02-16T00:51:01;35.92;26.91;39.46;;
46749;Laerm;33775;47.992;11.864;2024-02-16T00:53:26;35.94;23.90;39.46;;
46749;Laerm;33775;47.992;11.864;2024-02-16T00:55:51;35.93;28.67;39.70;;
46749;Laerm;33775;47.992;11.864;2024-02-16T00:58:17;35.94;26.91;39.34;;
46749;Laerm;33775;47.992;11.864;2024-02-16T01:00:42;35.95;26.91;39.92;;
46749;Laerm;33775;47.992;11.864;2024-02-16T01:03:08;35.98;28.67;39.46;;
46749;Laerm;33775;47.992;11.864;2024-02-16T01:05:33;35.95;28.67;39.21;;
46749;Laerm;33775;47.992;11.864;2024-02-16T01:08:00;35.92;23.90;39.34;;
46749;Laerm;33775;47.992;11.864;2024-02-16T01:10:25;35.94;29.92;38.95;;
46749;Laerm;33775;47.992;11.864;2024-02-16T01:12:50;35.91;23.90;39.34;;
46749;Laerm;33775;47.992;11.864;2024-02-16T01:15:17;35.92;28.67;39.34;;
46749;Laerm;33775;47.992;11.864;2024-02-16T01:17:42;35.93;28.32;39.08;;
46749;Laerm;33775;47.992;11.864;2024-02-16T01:20:08;35.95;26.91;39.21;;
46749;Laerm;33775;47.992;11.864;2024-02-16T01:22:35;35.92;28.67;39.34;;
46749;Laerm;33775;47.992;11.864;2024-02-16T01:25:00;35.94;28.67;38.95;;
46749;Laerm;33775;47.992;11.864;2024-02-16T01:27:26;35.95;26.91;40.13;;
46749;Laerm;33775;47.992;11.864;2024-02-16T01:29:52;35.96;28.67;38.95;;
46749;Laerm;33775;47.992;11.864;2024-02-16T01:32:17;35.94;28.67;39.08;;
46749;Laerm;33775;47.992;11.864;2024-02-16T01:34:43;35.95;26.91;39.08;;
46749;Laerm;33775;47.992;11.864;2024-02-16T01:37:11;35.94;26.91;38.95;;
46749;Laerm;33775;47.992;11.864;2024-02-16T01:39:36;35.93;28.67;38.95;;
46749;Laerm;33775;47.992;11.864;2024-02-16T01:42:02;35.93;28.67;39.21;;
46749;Laerm;33775;47.992;11.864;2024-02-16T01:44:27;35.96;28.67;39.08;;
46749;Laerm;33775;47.992;11.864;2024-02-16T01:46:52;35.96;26.91;39.21;;
46749;Laerm;33775;47.992;11.864;2024-02-16T01:49:17;35.92;28.32;39.21;;
46749;Laerm;33775;47.992;11.864;2024-02-16T01:51:42;35.91;26.91;39.21;;
46749;Laerm;33775;47.992;11.864;2024-02-16T01:54:09;35.95;26.91;39.34;;
46749;Laerm;33775;47.992;11.864;2024-02-16T01:56:35;35.94;28.67;39.35;;
46749;Laerm;33775;47.992;11.864;2024-02-16T01:59:00;35.97;23.90;39.81;;
46749;Laerm;33775;47.992;11.864;2024-02-16T02:01:25;35.92;26.91;39.46;;
46749;Laerm;33775;47.992;11.864;2024-02-16T02:03:50;35.94;23.90;39.81;;
46749;Laerm;33775;47.992;11.864;2024-02-16T02:06:16;35.89;23.90;39.34;;
46749;Laerm;33775;47.992;11.864;2024-02-16T02:08:41;35.91;26.91;39.08;;
46749;Laerm;33775;47.992;11.864;2024-02-16T02:11:06;35.90;26.91;39.46;;
46749;Laerm;33775;47.992;11.864;2024-02-16T02:13:31;35.88;23.90;39.70;;
46749;Laerm;33775;47.992;11.864;2024-02-16T02:15:57;35.89;26.91;39.34;;
46749;Laerm;33775;47.992;11.864;2024-02-16T02:18:23;35.89;26.91;39.08;;
46749;Laerm;33775;47.992;11.864;2024-02-16T02:20:49;35.87;26.91;39.34;;
46749;Laerm;33775;47.992;11.864;2024-02-16T02:23:14;35.89;26.91;39.08;;
46749;Laerm;33775;47.992;11.864;2024-02-16T02:25:39;35.91;26.91;39.21;;
46749;Laerm;33775;47.992;11.864;2024-02-16T02:28:05;35.88;26.91;39.21;;
46749;Laerm;33775;47.992;11.864;2024-02-16T02:30:30;35.89;23.90;39.34;;
46749;Laerm;33775;47.992;11.864;2024-02-16T02:32:56;35.88;26.91;39.70;;
46749;Laerm;33775;47.992;11.864;2024-02-16T02:35:21;35.87;28.67;39.21;;
46749;Laerm;33775;47.992;11.864;2024-02-16T02:37:46;35.93;23.90;38.95;;
46749;Laerm;33775;47.992;11.864;2024-02-16T02:40:12;35.89;28.67;39.21;;
46749;Laerm;33775;47.992;11.864;2024-02-16T02:42:38;35.89;28.67;39.70;;
46749;Laerm;33775;47.992;11.864;2024-02-16T02:45:04;35.85;23.90;39.08;;
46749;Laerm;33775;47.992;11.864;2024-02-16T02:47:29;35.90;26.91;39.08;;
46749;Laerm;33775;47.992;11.864;2024-02-16T02:49:54;35.85;26.91;39.21;;
46749;Laerm;33775;47.992;11.864;2024-02-16T02:52:20;35.89;26.91;39.21;;
46749;Laerm;33775;47.992;11.864;2024-02-16T02:54:45;35.90;26.91;39.21;;
46749;Laerm;33775;47.992;11.864;2024-02-16T02:57:11;35.89;26.91;39.46;;
46749;Laerm;33775;47.992;11.864;2024-02-16T02:59:36;35.91;26.91;39.46;;
46749;Laerm;33775;47.992;11.864;2024-02-16T03:02:01;35.93;26.91;39.08;;
46749;Laerm;33775;47.992;11.864;2024-02-16T03:04:27;35.87;23.90;39.21;;
46749;Laerm;33775;47.992;11.864;2024-02-16T03:06:52;35.89;23.90;39.08;;
46749;Laerm;33775;47.992;11.864;2024-02-16T03:09:17;35.88;23.90;38.95;;
46749;Laerm;33775;47.992;11.864;2024-02-16T03:11:42;35.88;26.91;39.34;;
46749;Laerm;33775;47.992;11.864;2024-02-16T03:14:08;35.87;26.91;38.95;;
46749;Laerm;33775;47.992;11.864;2024-02-16T03:16:33;35.92;26.91;39.34;;
46749;Laerm;33775;47.992;11.864;2024-02-16T03:18:58;35.94;26.91;39.08;;
46749;Laerm;33775;47.992;11.864;2024-02-16T03:21:24;35.93;26.56;39.21;;
46749;Laerm;33775;47.992;11.864;2024-02-16T03:23:49;35.93;23.90;39.34;;
46749;Laerm;33775;47.992;11.864;2024-02-16T03:26:18;35.91;28.67;39.34;;
46749;Laerm;33775;47.992;11.864;2024-02-16T03:28:47;35.93;23.90;39.21;;
46749;Laerm;33775;47.992;11.864;2024-02-16T03:31:19;35.94;26.91;39.34;;
46749;Laerm;33775;47.992;11.864;2024-02-16T03:33:45;35.93;23.90;39.08;;
46749;Laerm;33775;47.992;11.864;2024-02-16T03:36:10;35.96;23.90;39.34;;
46749;Laerm;33775;47.992;11.864;2024-02-16T03:38:37;35.97;26.91;39.21;;
46749;Laerm;33775;47.992;11.864;2024-02-16T03:41:03;35.95;26.91;39.21;;
46749;Laerm;33775;47.992;11.864;2024-02-16T03:43:29;35.97;26.91;38.95;;
46749;Laerm;33775;47.992;11.864;2024-02-16T03:45:54;35.96;28.67;38.95;;
46749;Laerm;33775;47.992;11.864;2024-02-16T03:48:19;35.94;26.91;39.21;;
46749;Laerm;33775;47.992;11.864;2024-02-16T03:50:45;35.96;28.67;39.46;;
46749;Laerm;33775;47.992;11.864;2024-02-16T03:53:11;35.97;26.91;39.21;;
46749;Laerm;33775;47.992;11.864;2024-02-16T03:55:36;35.98;26.91;39.34;;
46749;Laerm;33775;47.992;11.864;2024-02-16T03:58:03;36.02;28.67;39.21;;
46749;Laerm;33775;47.992;11.864;2024-02-16T04:00:28;36.11;26.91;39.21;;
46749;Laerm;33775;47.992;11.864;2024-02-16T04:02:53;36.13;29.92;39.23;;
46749;Laerm;33775;47.992;11.864;2024-02-16T04:05:18;36.10;29.92;38.99;;
46749;Laerm;33775;47.992;11.864;2024-02-16T04:07:43;36.08;23.90;39.34;;
46749;Laerm;33775;47.992;11.864;2024-02-16T04:10:09;36.10;28.67;39.58;;
46749;Laerm;33775;47.992;11.864;2024-02-16T04:12:34;36.04;28.67;39.46;;
46749;Laerm;33775;47.992;11.864;2024-02-16T04:14:59;36.02;29.92;39.21;;
46749;Laerm;33775;47.992;11.864;2024-02-16T04:17:24;36.03;26.91;39.34;;
46749;Laerm;33775;47.992;11.864;2024-02-16T04:19:50;36.03;29.92;39.46;;
46749;Laerm;33775;47.992;11.864;2024-02-16T04:22:15;36.05;5.00;39.34;;
46749;Laerm;33775;47.992;11.864;2024-02-16T04:24:40;36.06;28.67;39.46;;
46749;Laerm;33775;47.992;11.864;2024-02-16T04:27:05;36.10;28.67;39.34;;
46749;Laerm;33775;47.992;11.864;2024-02-16T04:29:30;36.08;29.92;39.34;;
46749;Laerm;33775;47.992;11.864;2024-02-16T04:31:55;36.05;28.67;39.21;;
46749;Laerm;33775;47.992;11.864;2024-02-16T04:34:21;36.05;23.90;38.95;;
46749;Laerm;33775;47.992;11.864;2024-02-16T04:36:46;36.07;26.91;39.08;;
46749;Laerm;33775;47.992;11.864;2024-02-16T04:39:12;36.07;29.92;39.08;;
46749;Laerm;33775;47.992;11.864;2024-02-16T04:41:39;36.05;28.67;39.46;;
46749;Laerm;33775;47.992;11.864;2024-02-16T04:44:04;36.09;28.67;38.95;;
46749;Laerm;33775;47.992;11.864;2024-02-16T04:46:30;36.08;28.67;39.46;;
46749;Laerm;33775;47.992;11.864;2024-02-16T04:48:55;36.07;28.67;39.21;;
46749;Laerm;33775;47.992;11.864;2024-02-16T04:51:20;36.04;23.90;39.92;;
46749;Laerm;33775;47.992;11.864;2024-02-16T04:53:45;36.05;29.57;39.08;;
46749;Laerm;33775;47.992;11.864;2024-02-16T04:56:10;36.03;26.91;39.21;;
46749;Laerm;33775;47.992;11.864;2024-02-16T04:58:39;36.03;26.91;39.08;;
46749;Laerm;33775;47.992;11.864;2024-02-16T05:01:04;36.00;29.92;39.21;;
46749;Laerm;33775;47.992;11.864;2024-02-16T05:03:31;36.03;26.91;39.21;;
46749;Laerm;33775;47.992;11.864;2024-02-16T05:05:57;36.03;28.67;39.21;;
46749;Laerm;33775;47.992;11.864;2024-02-16T05:08:22;36.05;23.90;39.58;;
46749;Laerm;33775;47.992;11.864;2024-02-16T05:10:47;36.02;26.91;39.46;;
46749;Laerm;33775;47.992;11.864;2024-02-16T05:13:13;35.99;29.92;39.21;;
46749;Laerm;33775;47.992;11.864;2024-02-16T05:15:39;35.98;26.91;39.46;;
46749;Laerm;33775;47.992;11.864;2024-02-16T05:18:04;35.97;5.00;39.34;;
46749;Laerm;33775;47.992;11.864;2024-02-16T05:20:29;35.98;26.91;39.21;;
46749;Laerm;33775;47.992;11.864;2024-02-16T05:22:55;35.98;23.90;39.08;;
46749;Laerm;33775;47.992;11.864;2024-02-16T05:25:20;35.98;28.67;39.81;;
46749;Laerm;33775;47.992;11.864;2024-02-16T05:27:45;35.97;26.91;39.08;;
46749;Laerm;33775;47.992;11.864;2024-02-16T05:30:12;35.98;23.90;39.21;;
46749;Laerm;33775;47.992;11.864;2024-02-16T05:32:40;35.98;28.67;39.21;;
46749;Laerm;33775;47.992;11.864;2024-02-16T05:35:05;35.99;23.90;39.08;;
46749;Laerm;33775;47.992;11.864;2024-02-16T05:37:38;35.99;28.67;39.34;;
46749;Laerm;33775;47.992;11.864;2024-02-16T05:40:06;36.02;26.91;39.21;;
46749;Laerm;33775;47.992;11.864;2024-02-16T05:42:47;36.02;28.67;39.70;;
46749;Laerm;33775;47.992;11.864;2024-02-16T05:45:13;36.02;29.92;39.46;;
46749;Laerm;33775;47.992;11.864;2024-02-16T05:47:38;36.03;23.90;39.58;;
46749;Laerm;33775;47.992;11.864;2024-02-16T05:50:06;36.04;26.91;39.34;;
46749;Laerm;33775;47.992;11.864;2024-02-16T05:52:32;36.09;28.67;39.34;;
46749;Laerm;33775;47.992;11.864;2024-02-16T05:54:57;36.09;26.91;39.58;;
46749;Laerm;33775;47.992;11.864;2024-02-16T05:57:22;36.10;28.67;39.70;;
46749;Laerm;33775;47.992;11.864;2024-02-16T05:59:49;36.10;28.67;39.70;;
46749;Laerm;33775;47.992;11.864;2024-02-16T06:02:14;36.07;28.67;39.46;;
46749;Laerm;33775;47.992;11.864;2024-02-16T06:04:39;36.09;26.91;39.92;;
46749;Laerm;33775;47.992;11.864;2024-02-16T06:07:05;36.06;26.91;38.95;;
46749;Laerm;33775;47.992;11.864;2024-02-16T06:09:31;36.06;28.32;39.21;;
46749;Laerm;33775;47.992;11.864;2024-02-16T06:12:00;36.02;28.67;39.34;;
46749;Laerm;33775;47.992;11.864;2024-02-16T06:14:25;36.02;29.92;39.46;;
46749;Laerm;33775;47.992;11.864;2024-02-16T06:16:50;36.05;26.91;39.46;;
46749;Laerm;33775;47.992;11.864;2024-02-16T06:19:15;36.06;28.67;39.46;;
46749;Laerm;33775;47.992;11.864;2024-02-16T06:21:40;36.05;26.91;39.34;;
46749;Laerm;33775;47.992;11.864;2024-02-16T06:24:06;36.03;28.67;39.34;;
46749;Laerm;33775;47.992;11.864;2024-02-16T06:26:32;36.04;23.90;39.58;;
46749;Laerm;33775;47.992;11.864;2024-02-16T06:28:58;36.01;26.91;38.81;;
46749;Laerm;33775;47.992;11.864;2024-02-16T06:31:23;35.99;23.90;39.35;;
46749;Laerm;33775;47.992;11.864;2024-02-16T06:33:48;36.00;26.91;39.34;;
46749;Laerm;33775;47.992;11.864;2024-02-16T06:36:13;35.95;29.92;38.95;;
46749;Laerm;33775;47.992;11.864;2024-02-16T06:38:38;35.96;23.90;39.34;;
46749;Laerm;33775;47.992;11.864;2024-02-16T06:41:04;36.06;28.67;39.46;;
46749;Laerm;33775;47.992;11.864;2024-02-16T06:43:29;36.09;23.90;39.46;;
46749;Laerm;33775;47.992;11.864;2024-02-16T06:45:54;36.08;28.67;39.21;;
46749;Laerm;33775;47.992;11.864;2024-02-16T06:48:21;36.14;26.91;39.34;;
46749;Laerm;33775;47.992;11.864;2024-02-16T06:50:46;36.15;29.92;39.21;;
46749;Laerm;33775;47.992;11.864;2024-02-16T06:53:12;36.17;28.67;38.95;;
46749;Laerm;33775;47.992;11.864;2024-02-16T06:55:37;36.21;28.67;39.46;;
46749;Laerm;33775;47.992;11.864;2024-02-16T06:58:02;36.25;28.67;39.34;;
46749;Laerm;33775;47.992;11.864;2024-02-16T07:00:27;36.26;29.92;39.70;;
46749;Laerm;33775;47.992;11.864;2024-02-16T07:02:53;36.32;29.57;39.46;;
46749;Laerm;33775;47.992;11.864;2024-02-16T07:05:19;36.34;26.91;39.08;;
46749;Laerm;33775;47.992;11.864;2024-02-16T07:07:44;36.35;30.89;39.21;;
46749;Laerm;33775;47.992;11.864;2024-02-16T07:10:09;36.34;29.92;39.08;;
46749;Laerm;33775;47.992;11.864;2024-02-16T07:12:38;36.42;30.89;39.46;;
46749;Laerm;33775;47.992;11.864;2024-02-16T07:15:03;36.55;29.92;39.58;;
46749;Laerm;33775;47.992;11.864;2024-02-16T07:17:28;36.71;29.92;39.46;;
46749;Laerm;33775;47.992;11.864;2024-02-16T07:19:54;36.79;31.68;39.46;;
46749;Laerm;33775;47.992;11.864;2024-02-16T07:22:19;36.85;32.35;39.58;;
46749;Laerm;33775;47.992;11.864;2024-02-16T07:24:44;36.85;29.92;39.46;;
46749;Laerm;33775;47.992;11.864;2024-02-16T07:27:09;36.83;30.89;39.58;;
46749;Laerm;33775;47.992;11.864;2024-02-16T07:29:35;36.85;32.35;39.58;;
46749;Laerm;33775;47.992;11.864;2024-02-16T07:32:03;36.91;33.44;40.03;;
46749;Laerm;33775;47.992;11.864;2024-02-16T07:34:28;36.98;32.35;39.70;;
46749;Laerm;33775;47.992;11.864;2024-02-16T07:36:53;37.02;32.35;39.92;;
46749;Laerm;33775;47.992;11.864;2024-02-16T07:39:20;37.02;32.35;39.92;;
46749;Laerm;33775;47.992;11.864;2024-02-16T07:41:47;37.07;32.93;39.58;;
46749;Laerm;33775;47.992;11.864;2024-02-16T07:44:13;37.13;32.93;39.81;;
46749;Laerm;33775;47.992;11.864;2024-02-16T07:46:41;37.26;32.93;40.23;;
46749;Laerm;33775;47.992;11.864;2024-02-16T07:49:07;37.26;32.93;39.99;;
46749;Laerm;33775;47.992;11.864;2024-02-16T07:51:32;37.31;33.44;39.92;;
46749;Laerm;33775;47.992;11.864;2024-02-16T07:53:57;37.35;32.93;40.33;;
46749;Laerm;33775;47.992;11.864;2024-02-16T07:56:22;37.26;31.68;40.13;;
46749;Laerm;33775;47.992;11.864;2024-02-16T07:58:47;37.27;33.44;39.92;;
46749;Laerm;33775;47.992;11.864;2024-02-16T08:01:13;37.20;31.68;40.33;;
46749;Laerm;33775;47.992;11.864;2024-02-16T08:03:40;37.07;32.35;39.70;;
46749;Laerm;33775;47.992;11.864;2024-02-16T08:06:06;37.11;32.35;39.81;;
46749;Laerm;33775;47.992;11.864;2024-02-16T08:08:31;37.12;32.93;39.92;;
46749;Laerm;33775;47.992;11.864;2024-02-16T08:10:56;37.09;32.93;40.03;;
46749;Laerm;33775;47.992;11.864;2024-02-16T08:13:21;37.07;32.35;40.03;;
46749;Laerm;33775;47.992;11.864;2024-02-16T08:15:47;37.05;31.68;39.81;;
46749;Laerm;33775;47.992;11.864;2024-02-16T08:18:13;37.02;31.68;40.23;;
46749;Laerm;33775;47.992;11.864;2024-02-16T08:20:38;37.03;31.68;39.92;;
46749;Laerm;33775;47.992;11.864;2024-02-16T08:23:04;37.04;32.35;39.92;;
46749;Laerm;33775;47.992;11.864;2024-02-16T08:25:29;37.06;31.68;39.81;;
46749;Laerm;33775;47.992;11.864;2024-02-16T08:27:55;37.06;31.68;40.33;;
46749;Laerm;33775;47.992;11.864;2024-02-16T08:30:20;37.06;31.68;39.81;;
46749;Laerm;33775;47.992;11.864;2024-02-16T08:32:46;37.09;32.35;39.81;;
46749;Laerm;33775;47.992;11.864;2024-02-16T08:35:11;37.09;32.93;39.92;;
46749;Laerm;33775;47.992;11.864;2024-02-16T08:37:39;37.09;31.68;39.70;;
46749;Laerm;33775;47.992;11.864;2024-02-16T08:40:04;37.09;30.89;40.13;;
46749;Laerm;33775;47.992;11.864;2024-02-16T08:42:30;37.11;31.68;40.03;;
46749;Laerm;33775;47.992;11.864;2024-02-16T08:44:56;37.10;31.68;40.23;;
46749;Laerm;33775;47.992;11.864;2024-02-16T08:47:23;37.08;31.68;40.03;;
46749;Laerm;33775;47.992;11.864;2024-02-16T08:49:48;37.08;32.35;39.92;;
46749;Laerm;33775;47.992;11.864;2024-02-16T08:52:13;37.08;31.68;39.92;;
46749;Laerm;33775;47.992;11.864;2024-02-16T08:54:39;37.06;30.89;39.70;;
46749;Laerm;33775;47.992;11.864;2024-02-16T08:57:04;37.08;30.89;39.92;;
46749;Laerm;33775;47.992;11.864;2024-02-16T08:59:30;37.09;30.89;40.33;;
46749;Laerm;33775;47.992;11.864;2024-02-16T09:01:55;37.10;32.35;40.13;;
46749;Laerm;33775;47.992;11.864;2024-02-16T09:04:21;37.06;32.35;39.81;;
46749;Laerm;33775;47.992;11.864;2024-02-16T09:06:46;37.06;32.35;39.92;;
46749;Laerm;33775;47.992;11.864;2024-02-16T09:09:12;37.04;31.68;40.13;;
46749;Laerm;33775;47.992;11.864;2024-02-16T09:11:37;37.03;31.68;39.92;;
46749;Laerm;33775;47.992;11.864;2024-02-16T09:14:02;37.03;32.35;40.13;;
46749;Laerm;33775;47.992;11.864;2024-02-16T09:16:28;37.05;32.35;39.81;;
46749;Laerm;33775;47.992;11.864;2024-02-16T09:18:53;37.04;32.93;40.03;;
46749;Laerm;33775;47.992;11.864;2024-02-16T09:21:18;37.04;32.35;39.70;;
46749;Laerm;33775;47.992;11.864;2024-02-16T09:23:44;37.07;31.68;40.13;;
46749;Laerm;33775;47.992;11.864;2024-02-16T09:26:10;37.11;31.68;39.81;;
46749;Laerm;33775;47.992;11.864;2024-02-16T09:28:38;37.11;32.93;39.81;;
46749;Laerm;33775;47.992;11.864;2024-02-16T09:31:03;37.14;32.35;39.92;;
46749;Laerm;33775;47.992;11.864;2024-02-16T09:33:29;37.14;32.93;40.13;;
46749;Laerm;33775;47.992;11.864;2024-02-16T09:35:54;37.15;30.89;39.70;;
46749;Laerm;33775;47.992;11.864;2024-02-16T09:38:19;37.21;32.35;40.23;;
46749;Laerm;33775;47.992;11.864;2024-02-16T09:40:45;37.22;32.35;39.92;;
46749;Laerm;33775;47.992;11.864;2024-02-16T09:43:20;37.22;31.68;40.33;;
46749;Laerm;33775;47.992;11.864;2024-02-16T09:45:46;37.25;33.44;40.13;;
46749;Laerm;33775;47.992;11.864;2024-02-16T09:48:12;37.28;32.93;40.13;;
46749;Laerm;33775;47.992;11.864;2024-02-16T09:50:38;37.28;33.09;40.03;;
46749;Laerm;33775;47.992;11.864;2024-02-16T09:53:03;37.28;32.93;39.78;;
46749;Laerm;33775;47.992;11.864;2024-02-16T09:55:29;37.29;32.93;39.92;;
46749;Laerm;33775;47.992;11.864;2024-02-16T09:58:00;37.30;32.35;40.03;;
46749;Laerm;33775;47.992;11.864;2024-02-16T10:00:26;37.32;32.35;40.33;;
46749;Laerm;33775;47.992;11.864;2024-02-16T10:02:51;37.33;32.93;40.13;;
46749;Laerm;33775;47.992;11.864;2024-02-16T10:05:18;37.33;32.35;39.92;;
46749;Laerm;33775;47.992;11.864;2024-02-16T10:07:44;37.32;32.35;39.92;;
46749;Laerm;33775;47.992;11.864;2024-02-16T10:12:47;37.34;32.35;40.13;;
46749;Laerm;33775;47.992;11.864;2024-02-16T10:15:18;37.32;33.90;40.54;;
46749;Laerm;33775;47.992;11.864;2024-02-16T10:17:44;37.33;32.93;40.43;;
46749;Laerm;33775;47.992;11.864;2024-02-16T10:20:09;37.35;32.93;40.03;;
46749;Laerm;33775;47.992;11.864;2024-02-16T10:22:36;37.35;32.93;39.92;;
46749;Laerm;33775;47.992;11.864;2024-02-16T10:25:10;37.33;32.93;40.33;;
46749;Laerm;33775;47.992;11.864;2024-02-16T10:27:38;37.36;32.93;39.92;;
46749;Laerm;33775;47.992;11.864;2024-02-16T10:30:03;37.38;32.93;40.13;;
46749;Laerm;33775;47.992;11.864;2024-02-16T10:32:34;37.34;32.93;40.03;;
46749;Laerm;33775;47.992;11.864;2024-02-16T10:35:00;37.36;32.35;40.03;;
46749;Laerm;33775;47.992;11.864;2024-02-16T10:37:28;37.40;32.35;40.33;;
46749;Laerm;33775;47.992;11.864;2024-02-16T10:39:53;37.42;32.35;40.53;;
46749;Laerm;33775;47.992;11.864;2024-02-16T10:42:19;37.38;32.93;40.33;;
46749;Laerm;33775;47.992;11.864;2024-02-16T10:44:45;37.38;32.35;40.43;;
46749;Laerm;33775;47.992;11.864;2024-02-16T10:47:11;37.42;33.44;40.13;;
46749;Laerm;33775;47.992;11.864;2024-02-16T10:49:36;37.38;32.93;40.23;;
46749;Laerm;33775;47.992;11.864;2024-02-16T10:52:02;37.36;32.93;39.92;;
46749;Laerm;33775;47.992;11.864;2024-02-16T10:54:30;37.40;32.93;40.53;;
46749;Laerm;33775;47.992;11.864;2024-02-16T10:56:57;37.36;32.93;39.92;;
46749;Laerm;33775;47.992;11.864;2024-02-16T10:59:22;37.40;32.93;40.23;;
46749;Laerm;33775;47.992;11.864;2024-02-16T11:01:48;37.40;32.35;40.89;;
46749;Laerm;33775;47.992;11.864;2024-02-16T11:04:23;37.39;33.44;40.27;;
46749;Laerm;33775;47.992;11.864;2024-02-16T11:06:51;37.38;33.44;40.33;;
46749;Laerm;33775;47.992;11.864;2024-02-16T11:09:25;37.38;32.35;40.03;;
46749;Laerm;33775;47.992;11.864;2024-02-16T11:11:54;37.40;32.93;40.27;;
46749;Laerm;33775;47.992;11.864;2024-02-16T11:14:21;37.37;32.93;40.23;;
46749;Laerm;33775;47.992;11.864;2024-02-16T11:16:46;37.44;33.44;40.53;;
46749;Laerm;33775;47.992;11.864;2024-02-16T11:19:11;37.41;33.90;40.03;;
46749;Laerm;33775;47.992;11.864;2024-02-16T11:21:38;37.43;32.93;40.03;;
46749;Laerm;33775;47.992;11.864;2024-02-16T11:24:06;37.43;33.44;40.33;;
46749;Laerm;33775;47.992;11.864;2024-02-16T11:26:31;37.41;32.93;40.33;;
46749;Laerm;33775;47.992;11.864;2024-02-16T11:28:56;37.47;33.44;40.03;;
46749;Laerm;33775;47.992;11.864;2024-02-16T11:31:22;37.50;32.93;40.43;;
46749;Laerm;33775;47.992;11.864;2024-02-16T11:33:47;37.53;32.93;40.03;;
46749;Laerm;33775;47.992;11.864;2024-02-16T11:36:12;37.49;32.35;40.13;;
46749;Laerm;33775;47.992;11.864;2024-02-16T11:38:37;37.47;33.44;40.33;;
46749;Laerm;33775;47.992;11.864;2024-02-16T11:41:04;37.49;32.35;40.23;;
46749;Laerm;33775;47.992;11.864;2024-02-16T11:43:30;37.46;33.44;40.13;;
46749;Laerm;33775;47.992;11.864;2024-02-16T11:45:55;37.57;32.93;40.23;;
46749;Laerm;33775;47.992;11.864;2024-02-16T11:48:24;37.49;32.93;40.13;;
46749;Laerm;33775;47.992;11.864;2024-02-16T11:50:58;37.42;32.93;40.23;;
46749;Laerm;33775;47.992;11.864;2024-02-16T11:53:23;37.45;31.68;40.43;;
46749;Laerm;33775;47.992;11.864;2024-02-16T11:55:49;37.43;31.68;40.33;;
46749;Laerm;33775;47.992;11.864;2024-02-16T11:58:18;37.37;30.89;40.13;;
46749;Laerm;33775;47.992;11.864;2024-02-16T12:00:47;37.36;29.92;40.13;;
46749;Laerm;33775;47.992;11.864;2024-02-16T12:03:22;37.39;32.93;40.13;;
46749;Laerm;33775;47.992;11.864;2024-02-16T12:05:51;37.33;31.68;40.62;;
46749;Laerm;33775;47.992;11.864;2024-02-16T12:08:17;37.38;32.35;40.27;;
46749;Laerm;33775;47.992;11.864;2024-02-16T12:10:42;37.36;31.68;40.33;;
46749;Laerm;33775;47.992;11.864;2024-02-16T12:13:08;37.45;32.35;40.33;;
46749;Laerm;33775;47.992;11.864;2024-02-16T12:15:33;37.37;32.35;40.33;;
46749;Laerm;33775;47.992;11.864;2024-02-16T12:17:59;37.42;32.35;40.62;;
46749;Laerm;33775;47.992;11.864;2024-02-16T12:20:25;37.39;32.93;40.53;;
46749;Laerm;33775;47.992;11.864;2024-02-16T12:22:51;37.40;30.89;40.33;;
46749;Laerm;33775;47.992;11.864;2024-02-16T12:25:16;37.36;32.35;40.13;;
46749;Laerm;33775;47.992;11.864;2024-02-16T12:27:41;37.29;32.35;40.23;;
46749;Laerm;33775;47.992;11.864;2024-02-16T12:30:07;37.28;31.68;40.62;;
46749;Laerm;33775;47.992;11.864;2024-02-16T12:32:32;37.28;32.35;40.62;;
46749;Laerm;33775;47.992;11.864;2024-02-16T12:34:57;37.25;30.89;39.92;;
46749;Laerm;33775;47.992;11.864;2024-02-16T12:37:23;37.28;30.89;40.23;;
46749;Laerm;33775;47.992;11.864;2024-02-16T12:39:48;37.33;5.00;55.09;;
46749;Laerm;33775;47.992;11.864;2024-02-16T12:42:13;37.18;32.35;40.03;;
46749;Laerm;33775;47.992;11.864;2024-02-16T12:44:39;37.14;30.89;40.43;;
46749;Laerm;33775;47.992;11.864;2024-02-16T12:47:04;37.12;30.89;40.43;;
46749;Laerm;33775;47.992;11.864;2024-02-16T12:49:30;37.12;31.68;40.33;;
46749;Laerm;33775;47.992;11.864;2024-02-16T12:51:56;37.08;30.89;40.03;;
46749;Laerm;33775;47.992;11.864;2024-02-16T12:54:21;37.13;31.68;39.92;;
46749;Laerm;33775;47.992;11.864;2024-02-16T12:56:47;37.11;29.92;40.03;;
46749;Laerm;33775;47.992;11.864;2024-02-16T12:59:13;37.12;32.93;39.81;;
46749;Laerm;33775;47.992;11.864;2024-02-16T13:01:38;37.14;29.92;40.23;;
46749;Laerm;33775;47.992;11.864;2024-02-16T13:04:05;37.15;31.68;39.92;;
46749;Laerm;33775;47.992;11.864;2024-02-16T13:06:31;37.14;26.91;40.23;;
46749;Laerm;33775;47.992;11.864;2024-02-16T13:08:56;37.17;32.35;40.13;;
46749;Laerm;33775;47.992;11.864;2024-02-16T13:11:21;37.18;31.68;40.03;;
46749;Laerm;33775;47.992;11.864;2024-02-16T13:13:46;37.21;32.93;39.92;;
46749;Laerm;33775;47.992;11.864;2024-02-16T13:16:11;37.30;31.68;54.61;;
46749;Laerm;33775;47.992;11.864;2024-02-16T13:18:37;37.23;32.35;40.53;;
46749;Laerm;33775;47.992;11.864;2024-02-16T13:21:02;37.25;29.92;40.13;;
46749;Laerm;33775;47.992;11.864;2024-02-16T13:23:27;37.21;32.35;40.13;;
46749;Laerm;33775;47.992;11.864;2024-02-16T13:25:54;37.19;31.68;40.53;;